EGPH/EDI METAR and TAF weather

Enter ICAO airport designator
Station Type Date Time Source
EGPH METAR 2018/06/25 01:50 UTC NOAA

EGPH 250150Z 26005KT CAVOK 11/08 Q1025


Station Type Date Time Source
EGPH Decoded METAR 2018/06/25 01:50 UTC NOAA

Edinburgh Airport, United Kingdom (EGPH) 55-57N 003-21W 0M
Jun 24, 2018 - 09:50 PM EDT / 2018.06.25 0150 UTC
Wind: from the W (260 degrees) at 6 MPH (5 KT):0
Visibility: greater than 7 mile(s):0
Temperature: 51 F (11 C)
Dew Point: 46 F (8 C)
Relative Humidity: 81%
Pressure (altimeter): 30.27 in. Hg (1025 hPa)
ob: EGPH 250150Z 26005KT CAVOK 11/08 Q1025
cycle: 2

Station Type Date Time Source
EGPH TAF 2018/06/24 18:16 UTC NOAA

TAF EGPH 241659Z 2418/2518 26009KT 9999 FEW040


Example: see airport list